sensor_id;sensor_type;location;lat;lon;timestamp;P1;durP1;ratioP1;P2;durP2;ratioP2
54557;SDS011;40452;50.080;20.040;2022-11-20T07:07:36;40.42;;;22.73;;
54557;SDS011;40452;50.080;20.040;2022-11-20T07:10:02;38.05;;;22.48;;
54557;SDS011;40452;50.080;20.040;2022-11-20T07:12:27;36.28;;;21.27;;
54557;SDS011;40452;50.080;20.040;2022-11-20T07:14:53;43.67;;;21.73;;
54557;SDS011;40452;50.080;20.040;2022-11-20T07:17:18;35.55;;;21.38;;
54557;SDS011;40452;50.080;20.040;2022-11-20T07:19:44;34.63;;;20.52;;
54557;SDS011;40452;50.080;20.040;2022-11-20T07:22:09;36.60;;;21.08;;
54557;SDS011;40452;50.080;20.040;2022-11-20T07:24:35;37.22;;;21.65;;
54557;SDS011;40452;50.080;20.040;2022-11-20T07:27:00;35.55;;;20.77;;
54557;SDS011;40452;50.080;20.040;2022-11-20T07:29:26;35.70;;;20.67;;
54557;SDS011;40452;50.080;20.040;2022-11-20T07:31:51;40.72;;;22.30;;
54557;SDS011;40452;50.080;20.040;2022-11-20T07:34:17;35.05;;;21.17;;
54557;SDS011;40452;50.080;20.040;2022-11-20T07:36:42;34.97;;;20.60;;
54557;SDS011;40452;50.080;20.040;2022-11-20T07:39:08;41.63;;;22.70;;
54557;SDS011;40452;50.080;20.040;2022-11-20T07:41:33;41.38;;;21.58;;
54557;SDS011;40452;50.080;20.040;2022-11-20T07:43:59;39.92;;;22.52;;
54557;SDS011;40452;50.080;20.040;2022-11-20T07:46:24;33.28;;;20.67;;
54557;SDS011;40452;50.080;20.040;2022-11-20T07:48:50;37.25;;;22.88;;
54557;SDS011;40452;50.080;20.040;2022-11-20T07:51:15;38.92;;;22.35;;
54557;SDS011;40452;50.080;20.040;2022-11-20T07:53:41;40.95;;;22.42;;
54557;SDS011;40452;50.080;20.040;2022-11-20T07:56:06;36.90;;;22.17;;
54557;SDS011;40452;50.080;20.040;2022-11-20T07:58:32;41.38;;;22.60;;
54557;SDS011;40452;50.080;20.040;2022-11-20T08:01:03;39.13;;;21.40;;
54557;SDS011;40452;50.080;20.040;2022-11-20T08:03:29;38.28;;;21.92;;
54557;SDS011;40452;50.080;20.040;2022-11-20T08:05:58;42.08;;;22.80;;
54557;SDS011;40452;50.080;20.040;2022-11-20T08:08:24;41.15;;;22.20;;
54557;SDS011;40452;50.080;20.040;2022-11-20T08:10:50;45.33;;;23.33;;
54557;SDS011;40452;50.080;20.040;2022-11-20T08:13:15;42.97;;;23.08;;
54557;SDS011;40452;50.080;20.040;2022-11-20T08:15:59;41.35;;;22.60;;
54557;SDS011;40452;50.080;20.040;2022-11-20T08:18:25;43.05;;;24.02;;
54557;SDS011;40452;50.080;20.040;2022-11-20T08:20:50;41.03;;;23.40;;
54557;SDS011;40452;50.080;20.040;2022-11-20T08:23:16;42.22;;;24.42;;
54557;SDS011;40452;50.080;20.040;2022-11-20T08:25:41;42.15;;;23.58;;
54557;SDS011;40452;50.080;20.040;2022-11-20T08:28:08;40.58;;;24.13;;
54557;SDS011;40452;50.080;20.040;2022-11-20T08:30:35;38.13;;;22.73;;
54557;SDS011;40452;50.080;20.040;2022-11-20T08:33:02;41.70;;;23.95;;
54557;SDS011;40452;50.080;20.040;2022-11-20T08:35:32;46.00;;;23.98;;
54557;SDS011;40452;50.080;20.040;2022-11-20T08:37:59;43.42;;;23.38;;
54557;SDS011;40452;50.080;20.040;2022-11-20T08:40:25;46.92;;;25.75;;
54557;SDS011;40452;50.080;20.040;2022-11-20T08:42:51;48.55;;;25.25;;
54557;SDS011;40452;50.080;20.040;2022-11-20T08:45:17;43.17;;;25.50;;
54557;SDS011;40452;50.080;20.040;2022-11-20T08:47:43;45.45;;;25.65;;
54557;SDS011;40452;50.080;20.040;2022-11-20T08:50:10;42.20;;;23.30;;
54557;SDS011;40452;50.080;20.040;2022-11-20T08:52:37;45.00;;;24.35;;
54557;SDS011;40452;50.080;20.040;2022-11-20T08:55:03;45.60;;;24.88;;
54557;SDS011;40452;50.080;20.040;2022-11-20T08:57:33;46.25;;;24.77;;
54557;SDS011;40452;50.080;20.040;2022-11-20T08:59:59;44.58;;;25.02;;
54557;SDS011;40452;50.080;20.040;2022-11-20T09:02:25;46.35;;;25.30;;
54557;SDS011;40452;50.080;20.040;2022-11-20T09:04:51;44.72;;;25.23;;
54557;SDS011;40452;50.080;20.040;2022-11-20T09:07:18;47.17;;;25.95;;
54557;SDS011;40452;50.080;20.040;2022-11-20T09:09:43;45.97;;;24.20;;
54557;SDS011;40452;50.080;20.040;2022-11-20T09:12:09;45.60;;;24.40;;
54557;SDS011;40452;50.080;20.040;2022-11-20T09:14:35;46.85;;;26.10;;
54557;SDS011;40452;50.080;20.040;2022-11-20T09:17:00;49.22;;;26.23;;
54557;SDS011;40452;50.080;20.040;2022-11-20T09:19:25;43.72;;;25.48;;
54557;SDS011;40452;50.080;20.040;2022-11-20T09:21:51;43.83;;;25.90;;
54557;SDS011;40452;50.080;20.040;2022-11-20T09:24:17;41.25;;;24.13;;
54557;SDS011;40452;50.080;20.040;2022-11-20T09:26:48;43.40;;;23.88;;
54557;SDS011;40452;50.080;20.040;2022-11-20T09:29:16;40.90;;;23.45;;
54557;SDS011;40452;50.080;20.040;2022-11-20T09:31:41;48.90;;;25.83;;
54557;SDS011;40452;50.080;20.040;2022-11-20T09:34:07;44.08;;;25.02;;
54557;SDS011;40452;50.080;20.040;2022-11-20T09:36:33;43.55;;;24.98;;
54557;SDS011;40452;50.080;20.040;2022-11-20T09:38:58;42.60;;;24.52;;
54557;SDS011;40452;50.080;20.040;2022-11-20T09:44:24;42.35;;;23.58;;
54557;SDS011;40452;50.080;20.040;2022-11-20T09:47:08;39.78;;;23.85;;
54557;SDS011;40452;50.080;20.040;2022-11-20T09:50:02;39.65;;;23.15;;
54557;SDS011;40452;50.080;20.040;2022-11-20T09:55:31;41.45;;;23.08;;
54557;SDS011;40452;50.080;20.040;2022-11-20T09:57:56;38.88;;;23.48;;
54557;SDS011;40452;50.080;20.040;2022-11-20T10:00:24;38.70;;;22.45;;
54557;SDS011;40452;50.080;20.040;2022-11-20T10:02:53;40.67;;;22.73;;
54557;SDS011;40452;50.080;20.040;2022-11-20T10:05:27;52.58;;;24.00;;
54557;SDS011;40452;50.080;20.040;2022-11-20T10:10:52;42.20;;;25.02;;
54557;SDS011;40452;50.080;20.040;2022-11-20T10:16:26;43.95;;;23.98;;
54557;SDS011;40452;50.080;20.040;2022-11-20T10:19:23;42.60;;;24.88;;
54557;SDS011;40452;50.080;20.040;2022-11-20T10:22:09;44.88;;;24.13;;
54557;SDS011;40452;50.080;20.040;2022-11-20T10:24:56;42.75;;;23.95;;
54557;SDS011;40452;50.080;20.040;2022-11-20T10:30:17;38.92;;;22.60;;
54557;SDS011;40452;50.080;20.040;2022-11-20T10:32:47;39.90;;;23.63;;
54557;SDS011;40452;50.080;20.040;2022-11-20T10:35:21;37.30;;;22.88;;
54557;SDS011;40452;50.080;20.040;2022-11-20T10:38:01;44.00;;;23.58;;
54557;SDS011;40452;50.080;20.040;2022-11-20T10:40:32;39.53;;;23.13;;
54557;SDS011;40452;50.080;20.040;2022-11-20T10:43:25;41.03;;;23.40;;
54557;SDS011;40452;50.080;20.040;2022-11-20T10:46:01;44.15;;;24.45;;
54557;SDS011;40452;50.080;20.040;2022-11-20T10:48:32;44.65;;;23.55;;
54557;SDS011;40452;50.080;20.040;2022-11-20T10:51:07;41.13;;;24.90;;
54557;SDS011;40452;50.080;20.040;2022-11-20T10:54:00;43.85;;;24.77;;
54557;SDS011;40452;50.080;20.040;2022-11-20T10:56:53;38.90;;;24.83;;
54557;SDS011;40452;50.080;20.040;2022-11-20T11:02:14;43.67;;;24.95;;
54557;SDS011;40452;50.080;20.040;2022-11-20T11:04:44;44.50;;;25.55;;
54557;SDS011;40452;50.080;20.040;2022-11-20T11:07:24;47.53;;;25.58;;
54557;SDS011;40452;50.080;20.040;2022-11-20T11:09:54;40.63;;;25.23;;
54557;SDS011;40452;50.080;20.040;2022-11-20T11:12:22;43.95;;;24.75;;
54557;SDS011;40452;50.080;20.040;2022-11-20T11:14:53;42.92;;;26.10;;
54557;SDS011;40452;50.080;20.040;2022-11-20T11:17:22;42.60;;;26.02;;
54557;SDS011;40452;50.080;20.040;2022-11-20T11:20:02;47.05;;;25.95;;
54557;SDS011;40452;50.080;20.040;2022-11-20T11:23:22;41.78;;;24.65;;
54557;SDS011;40452;50.080;20.040;2022-11-20T11:25:55;42.47;;;25.25;;
54557;SDS011;40452;50.080;20.040;2022-11-20T11:28:22;42.85;;;24.80;;
54557;SDS011;40452;50.080;20.040;2022-11-20T11:30:51;45.92;;;26.38;;
54557;SDS011;40452;50.080;20.040;2022-11-20T11:33:29;38.40;;;24.40;;
54557;SDS011;40452;50.080;20.040;2022-11-20T11:36:02;42.10;;;24.95;;
54557;SDS011;40452;50.080;20.040;2022-11-20T11:38:39;43.60;;;24.73;;
54557;SDS011;40452;50.080;20.040;2022-11-20T11:41:06;47.42;;;27.67;;
54557;SDS011;40452;50.080;20.040;2022-11-20T11:43:39;42.80;;;26.38;;
54557;SDS011;40452;50.080;20.040;2022-11-20T11:46:33;49.92;;;29.00;;
54557;SDS011;40452;50.080;20.040;2022-11-20T11:49:14;45.95;;;28.90;;
54557;SDS011;40452;50.080;20.040;2022-11-20T11:54:14;46.85;;;28.00;;
54557;SDS011;40452;50.080;20.040;2022-11-20T11:56:47;50.05;;;26.58;;
54557;SDS011;40452;50.080;20.040;2022-11-20T11:59:25;45.03;;;26.85;;
54557;SDS011;40452;50.080;20.040;2022-11-20T12:01:59;44.75;;;26.52;;
54557;SDS011;40452;50.080;20.040;2022-11-20T12:04:46;44.15;;;26.55;;
54557;SDS011;40452;50.080;20.040;2022-11-20T12:07:46;45.67;;;24.65;;
54557;SDS011;40452;50.080;20.040;2022-11-20T12:10:14;43.03;;;25.80;;
54557;SDS011;40452;50.080;20.040;2022-11-20T12:12:54;40.25;;;25.55;;
54557;SDS011;40452;50.080;20.040;2022-11-20T12:15:27;49.08;;;25.83;;
54557;SDS011;40452;50.080;20.040;2022-11-20T12:17:55;40.75;;;25.25;;
54557;SDS011;40452;50.080;20.040;2022-11-20T12:20:22;45.35;;;24.65;;
54557;SDS011;40452;50.080;20.040;2022-11-20T12:23:02;43.47;;;26.13;;
54557;SDS011;40452;50.080;20.040;2022-11-20T12:25:47;42.50;;;26.45;;
54557;SDS011;40452;50.080;20.040;2022-11-20T12:28:22;45.17;;;26.15;;
54557;SDS011;40452;50.080;20.040;2022-11-20T12:34:00;43.45;;;26.48;;
54557;SDS011;40452;50.080;20.040;2022-11-20T12:36:55;40.40;;;25.13;;
54557;SDS011;40452;50.080;20.040;2022-11-20T12:39:34;44.78;;;25.92;;
54557;SDS011;40452;50.080;20.040;2022-11-20T12:48:26;42.33;;;26.13;;
54557;SDS011;40452;50.080;20.040;2022-11-20T12:51:13;46.95;;;25.88;;
54557;SDS011;40452;50.080;20.040;2022-11-20T12:56:25;37.35;;;23.92;;
54557;SDS011;40452;50.080;20.040;2022-11-20T13:07:13;38.67;;;24.73;;
54557;SDS011;40452;50.080;20.040;2022-11-20T13:09:43;42.58;;;24.77;;
54557;SDS011;40452;50.080;20.040;2022-11-20T13:18:04;42.83;;;25.83;;
54557;SDS011;40452;50.080;20.040;2022-11-20T13:20:33;38.67;;;24.88;;
54557;SDS011;40452;50.080;20.040;2022-11-20T13:23:00;37.40;;;24.25;;
54557;SDS011;40452;50.080;20.040;2022-11-20T13:25:36;41.63;;;25.73;;
54557;SDS011;40452;50.080;20.040;2022-11-20T13:28:59;44.10;;;25.90;;
54557;SDS011;40452;50.080;20.040;2022-11-20T13:30:54;37.58;;;24.35;;
54557;SDS011;40452;50.080;20.040;2022-11-20T13:33:22;40.03;;;24.88;;
54557;SDS011;40452;50.080;20.040;2022-11-20T13:38:24;42.00;;;25.15;;
54557;SDS011;40452;50.080;20.040;2022-11-20T13:40:50;40.70;;;25.42;;
54557;SDS011;40452;50.080;20.040;2022-11-20T13:43:34;41.15;;;24.95;;
54557;SDS011;40452;50.080;20.040;2022-11-20T13:46:05;38.75;;;23.55;;
54557;SDS011;40452;50.080;20.040;2022-11-20T13:48:42;39.58;;;23.85;;
54557;SDS011;40452;50.080;20.040;2022-11-20T13:51:26;37.70;;;23.48;;
54557;SDS011;40452;50.080;20.040;2022-11-20T14:00:07;38.60;;;23.38;;
54557;SDS011;40452;50.080;20.040;2022-11-20T14:02:40;40.40;;;22.90;;
54557;SDS011;40452;50.080;20.040;2022-11-20T14:05:13;36.80;;;23.33;;
54557;SDS011;40452;50.080;20.040;2022-11-20T14:07:46;38.05;;;23.77;;
54557;SDS011;40452;50.080;20.040;2022-11-20T14:10:20;37.47;;;24.25;;
54557;SDS011;40452;50.080;20.040;2022-11-20T14:12:50;42.30;;;23.45;;
54557;SDS011;40452;50.080;20.040;2022-11-20T14:17:58;45.03;;;24.42;;
54557;SDS011;40452;50.080;20.040;2022-11-20T14:20:28;39.58;;;24.00;;
54557;SDS011;40452;50.080;20.040;2022-11-20T14:22:56;43.22;;;26.38;;
54557;SDS011;40452;50.080;20.040;2022-11-20T14:25:22;42.28;;;26.13;;
54557;SDS011;40452;50.080;20.040;2022-11-20T14:27:56;51.10;;;27.85;;
54557;SDS011;40452;50.080;20.040;2022-11-20T14:30:24;46.50;;;27.58;;
54557;SDS011;40452;50.080;20.040;2022-11-20T14:33:10;48.67;;;29.15;;
54557;SDS011;40452;50.080;20.040;2022-11-20T14:35:38;50.72;;;28.00;;
54557;SDS011;40452;50.080;20.040;2022-11-20T14:38:10;49.80;;;27.75;;
54557;SDS011;40452;50.080;20.040;2022-11-20T14:40:38;47.97;;;27.08;;
54557;SDS011;40452;50.080;20.040;2022-11-20T14:43:16;49.70;;;28.27;;
54557;SDS011;40452;50.080;20.040;2022-11-20T14:45:42;48.10;;;26.80;;
54557;SDS011;40452;50.080;20.040;2022-11-20T14:48:09;48.00;;;25.95;;
54557;SDS011;40452;50.080;20.040;2022-11-20T14:50:37;66.18;;;26.60;;
54557;SDS011;40452;50.080;20.040;2022-11-20T14:53:03;46.20;;;25.48;;
54557;SDS011;40452;50.080;20.040;2022-11-20T14:55:33;44.30;;;26.17;;
54557;SDS011;40452;50.080;20.040;2022-11-20T14:58:01;42.90;;;25.48;;
54557;SDS011;40452;50.080;20.040;2022-11-20T15:01:03;45.85;;;25.27;;
54557;SDS011;40452;50.080;20.040;2022-11-20T15:03:33;43.00;;;26.00;;
54557;SDS011;40452;50.080;20.040;2022-11-20T15:06:00;43.65;;;25.73;;
54557;SDS011;40452;50.080;20.040;2022-11-20T15:08:26;41.67;;;24.02;;
54557;SDS011;40452;50.080;20.040;2022-11-20T15:10:52;41.75;;;25.95;;
54557;SDS011;40452;50.080;20.040;2022-11-20T15:16:01;41.38;;;25.92;;
54557;SDS011;40452;50.080;20.040;2022-11-20T15:18:31;41.65;;;25.50;;
54557;SDS011;40452;50.080;20.040;2022-11-20T15:21:02;45.15;;;26.13;;
54557;SDS011;40452;50.080;20.040;2022-11-20T15:23:29;40.88;;;25.45;;
54557;SDS011;40452;50.080;20.040;2022-11-20T15:25:54;43.90;;;26.25;;
54557;SDS011;40452;50.080;20.040;2022-11-20T15:28:21;44.15;;;26.33;;
54557;SDS011;40452;50.080;20.040;2022-11-20T15:30:54;44.00;;;26.08;;
54557;SDS011;40452;50.080;20.040;2022-11-20T15:33:21;42.88;;;25.98;;
54557;SDS011;40452;50.080;20.040;2022-11-20T15:35:47;47.33;;;26.00;;
54557;SDS011;40452;50.080;20.040;2022-11-20T15:38:14;41.00;;;25.65;;
54557;SDS011;40452;50.080;20.040;2022-11-20T15:40:42;45.25;;;26.30;;
54557;SDS011;40452;50.080;20.040;2022-11-20T15:43:10;43.75;;;27.13;;
54557;SDS011;40452;50.080;20.040;2022-11-20T15:45:45;47.67;;;28.58;;
54557;SDS011;40452;50.080;20.040;2022-11-20T15:48:16;47.97;;;28.40;;
54557;SDS011;40452;50.080;20.040;2022-11-20T15:53:38;52.45;;;32.03;;
54557;SDS011;40452;50.080;20.040;2022-11-20T15:56:05;54.33;;;31.73;;
54557;SDS011;40452;50.080;20.040;2022-11-20T15:58:37;50.65;;;32.17;;
54557;SDS011;40452;50.080;20.040;2022-11-20T16:01:13;53.00;;;31.48;;
54557;SDS011;40452;50.080;20.040;2022-11-20T16:03:40;53.67;;;32.25;;
54557;SDS011;40452;50.080;20.040;2022-11-20T16:06:07;53.70;;;33.03;;
54557;SDS011;40452;50.080;20.040;2022-11-20T16:08:33;49.60;;;30.90;;
54557;SDS011;40452;50.080;20.040;2022-11-20T16:10:59;53.10;;;32.40;;
54557;SDS011;40452;50.080;20.040;2022-11-20T16:13:24;53.80;;;31.48;;
54557;SDS011;40452;50.080;20.040;2022-11-20T16:16:17;53.78;;;32.13;;
54557;SDS011;40452;50.080;20.040;2022-11-20T16:18:45;51.97;;;31.25;;
54557;SDS011;40452;50.080;20.040;2022-11-20T16:21:11;53.40;;;31.20;;
54557;SDS011;40452;50.080;20.040;2022-11-20T16:23:38;53.15;;;32.25;;
54557;SDS011;40452;50.080;20.040;2022-11-20T16:26:11;54.65;;;31.73;;
54557;SDS011;40452;50.080;20.040;2022-11-20T16:28:38;55.75;;;31.95;;
54557;SDS011;40452;50.080;20.040;2022-11-20T16:31:14;48.10;;;29.52;;
54557;SDS011;40452;50.080;20.040;2022-11-20T16:33:41;51.28;;;29.83;;
54557;SDS011;40452;50.080;20.040;2022-11-20T16:36:12;46.22;;;28.77;;
54557;SDS011;40452;50.080;20.040;2022-11-20T16:38:38;48.25;;;29.70;;
54557;SDS011;40452;50.080;20.040;2022-11-20T16:41:05;50.63;;;31.23;;
54557;SDS011;40452;50.080;20.040;2022-11-20T16:43:31;46.55;;;29.92;;
54557;SDS011;40452;50.080;20.040;2022-11-20T16:45:56;53.33;;;30.23;;
54557;SDS011;40452;50.080;20.040;2022-11-20T16:48:22;47.30;;;29.42;;
54557;SDS011;40452;50.080;20.040;2022-11-20T16:50:51;51.30;;;30.90;;
54557;SDS011;40452;50.080;20.040;2022-11-20T16:53:18;50.75;;;30.35;;
54557;SDS011;40452;50.080;20.040;2022-11-20T16:55:44;53.50;;;30.08;;
54557;SDS011;40452;50.080;20.040;2022-11-20T16:58:10;51.97;;;30.45;;
54557;SDS011;40452;50.080;20.040;2022-11-20T17:00:36;55.22;;;33.50;;
54557;SDS011;40452;50.080;20.040;2022-11-20T17:03:03;52.03;;;32.92;;
54557;SDS011;40452;50.080;20.040;2022-11-20T17:05:30;51.30;;;32.40;;
54557;SDS011;40452;50.080;20.040;2022-11-20T17:07:56;54.45;;;33.20;;
54557;SDS011;40452;50.080;20.040;2022-11-20T17:10:21;54.85;;;33.13;;
54557;SDS011;40452;50.080;20.040;2022-11-20T17:12:47;56.20;;;34.35;;
54557;SDS011;40452;50.080;20.040;2022-11-20T17:15:12;53.17;;;33.10;;
54557;SDS011;40452;50.080;20.040;2022-11-20T17:17:38;51.60;;;32.33;;
54557;SDS011;40452;50.080;20.040;2022-11-20T17:20:04;56.20;;;34.90;;
54557;SDS011;40452;50.080;20.040;2022-11-20T17:22:30;55.58;;;34.90;;
54557;SDS011;40452;50.080;20.040;2022-11-20T17:24:56;57.10;;;33.33;;
54557;SDS011;40452;50.080;20.040;2022-11-20T17:27:21;53.35;;;34.38;;
54557;SDS011;40452;50.080;20.040;2022-11-20T17:29:47;56.47;;;34.05;;
54557;SDS011;40452;50.080;20.040;2022-11-20T17:32:12;51.35;;;33.60;;
54557;SDS011;40452;50.080;20.040;2022-11-20T17:34:38;55.85;;;33.03;;
54557;SDS011;40452;50.080;20.040;2022-11-20T17:37:04;54.88;;;34.03;;
54557;SDS011;40452;50.080;20.040;2022-11-20T17:39:29;52.72;;;32.72;;
54557;SDS011;40452;50.080;20.040;2022-11-20T17:41:55;55.72;;;33.50;;
54557;SDS011;40452;50.080;20.040;2022-11-20T17:44:39;54.90;;;33.83;;
54557;SDS011;40452;50.080;20.040;2022-11-20T17:47:06;58.78;;;32.30;;
54557;SDS011;40452;50.080;20.040;2022-11-20T17:49:32;54.10;;;33.13;;
54557;SDS011;40452;50.080;20.040;2022-11-20T17:51:58;57.88;;;33.70;;
54557;SDS011;40452;50.080;20.040;2022-11-20T17:54:23;53.95;;;32.05;;
54557;SDS011;40452;50.080;20.040;2022-11-20T17:56:49;54.13;;;33.13;;
54557;SDS011;40452;50.080;20.040;2022-11-20T17:59:33;52.92;;;33.05;;
54557;SDS011;40452;50.080;20.040;2022-11-20T18:01:59;56.60;;;33.83;;
54557;SDS011;40452;50.080;20.040;2022-11-20T18:04:24;57.08;;;34.40;;
54557;SDS011;40452;50.080;20.040;2022-11-20T18:06:50;56.90;;;34.25;;
54557;SDS011;40452;50.080;20.040;2022-11-20T18:09:15;54.92;;;32.60;;
54557;SDS011;40452;50.080;20.040;2022-11-20T18:11:43;51.45;;;33.72;;
54557;SDS011;40452;50.080;20.040;2022-11-20T18:14:14;56.95;;;34.88;;
54557;SDS011;40452;50.080;20.040;2022-11-20T18:17:12;51.88;;;34.10;;
54557;SDS011;40452;50.080;20.040;2022-11-20T18:19:40;60.85;;;35.55;;
54557;SDS011;40452;50.080;20.040;2022-11-20T18:22:07;52.13;;;33.60;;
54557;SDS011;40452;50.080;20.040;2022-11-20T18:24:33;53.72;;;34.30;;
54557;SDS011;40452;50.080;20.040;2022-11-20T18:27:03;56.00;;;34.07;;
54557;SDS011;40452;50.080;20.040;2022-11-20T18:29:30;54.72;;;34.50;;
54557;SDS011;40452;50.080;20.040;2022-11-20T18:31:56;53.85;;;33.65;;
54557;SDS011;40452;50.080;20.040;2022-11-20T18:34:23;56.42;;;34.72;;
54557;SDS011;40452;50.080;20.040;2022-11-20T18:36:48;57.40;;;36.08;;
54557;SDS011;40452;50.080;20.040;2022-11-20T18:39:14;57.78;;;36.80;;
54557;SDS011;40452;50.080;20.040;2022-11-20T18:41:40;59.78;;;35.47;;
54557;SDS011;40452;50.080;20.040;2022-11-20T18:44:26;55.88;;;34.72;;
54557;SDS011;40452;50.080;20.040;2022-11-20T18:47:13;53.90;;;33.83;;
54557;SDS011;40452;50.080;20.040;2022-11-20T18:49:43;54.78;;;34.33;;
54557;SDS011;40452;50.080;20.040;2022-11-20T18:52:14;57.72;;;33.80;;
54557;SDS011;40452;50.080;20.040;2022-11-20T18:54:41;58.80;;;33.05;;
54557;SDS011;40452;50.080;20.040;2022-11-20T18:57:06;56.03;;;34.40;;
54557;SDS011;40452;50.080;20.040;2022-11-20T18:59:34;61.53;;;33.90;;
54557;SDS011;40452;50.080;20.040;2022-11-20T19:02:00;55.13;;;32.60;;
54557;SDS011;40452;50.080;20.040;2022-11-20T19:04:25;59.33;;;31.90;;
54557;SDS011;40452;50.080;20.040;2022-11-20T19:06:51;50.08;;;31.75;;
54557;SDS011;40452;50.080;20.040;2022-11-20T19:09:20;54.90;;;32.00;;
54557;SDS011;40452;50.080;20.040;2022-11-20T19:11:46;49.10;;;31.40;;
54557;SDS011;40452;50.080;20.040;2022-11-20T19:14:12;48.05;;;30.60;;
54557;SDS011;40452;50.080;20.040;2022-11-20T19:16:38;51.67;;;30.73;;
54557;SDS011;40452;50.080;20.040;2022-11-20T19:19:04;51.58;;;30.20;;
54557;SDS011;40452;50.080;20.040;2022-11-20T19:21:30;48.53;;;28.40;;
54557;SDS011;40452;50.080;20.040;2022-11-20T19:23:57;52.47;;;29.40;;
54557;SDS011;40452;50.080;20.040;2022-11-20T19:26:23;45.33;;;28.45;;
54557;SDS011;40452;50.080;20.040;2022-11-20T19:28:49;46.42;;;27.83;;
54557;SDS011;40452;50.080;20.040;2022-11-20T19:31:16;45.78;;;28.08;;
54557;SDS011;40452;50.080;20.040;2022-11-20T19:33:43;44.42;;;26.92;;
54557;SDS011;40452;50.080;20.040;2022-11-20T19:39:05;47.83;;;28.13;;
54557;SDS011;40452;50.080;20.040;2022-11-20T19:41:33;45.95;;;27.40;;
54557;SDS011;40452;50.080;20.040;2022-11-20T19:46:27;45.53;;;26.90;;
54557;SDS011;40452;50.080;20.040;2022-11-20T19:48:55;37.53;;;24.40;;
54557;SDS011;40452;50.080;20.040;2022-11-20T19:51:25;42.78;;;25.63;;
54557;SDS011;40452;50.080;20.040;2022-11-20T19:53:53;44.90;;;26.67;;
54557;SDS011;40452;50.080;20.040;2022-11-20T19:56:20;38.55;;;24.63;;
54557;SDS011;40452;50.080;20.040;2022-11-20T19:58:47;41.10;;;24.58;;
54557;SDS011;40452;50.080;20.040;2022-11-20T20:01:16;42.80;;;25.95;;
54557;SDS011;40452;50.080;20.040;2022-11-20T20:03:43;54.83;;;30.67;;
54557;SDS011;40452;50.080;20.040;2022-11-20T20:06:11;50.53;;;29.67;;
54557;SDS011;40452;50.080;20.040;2022-11-20T20:08:39;48.83;;;28.92;;
54557;SDS011;40452;50.080;20.040;2022-11-20T20:11:08;52.47;;;29.60;;
54557;SDS011;40452;50.080;20.040;2022-11-20T20:13:34;51.70;;;28.35;;
54557;SDS011;40452;50.080;20.040;2022-11-20T20:16:00;50.08;;;29.65;;
54557;SDS011;40452;50.080;20.040;2022-11-20T20:18:25;50.55;;;28.77;;
54557;SDS011;40452;50.080;20.040;2022-11-20T20:20:50;48.90;;;28.55;;
54557;SDS011;40452;50.080;20.040;2022-11-20T20:23:16;56.25;;;30.33;;
54557;SDS011;40452;50.080;20.040;2022-11-20T20:25:41;45.40;;;27.52;;
54557;SDS011;40452;50.080;20.040;2022-11-20T20:28:12;50.95;;;29.40;;
54557;SDS011;40452;50.080;20.040;2022-11-20T20:30:37;52.72;;;29.60;;
54557;SDS011;40452;50.080;20.040;2022-11-20T20:33:03;49.50;;;28.65;;
54557;SDS011;40452;50.080;20.040;2022-11-20T20:35:28;51.38;;;29.48;;
54557;SDS011;40452;50.080;20.040;2022-11-20T20:37:54;50.50;;;28.80;;
54557;SDS011;40452;50.080;20.040;2022-11-20T20:40:19;48.60;;;28.20;;
54557;SDS011;40452;50.080;20.040;2022-11-20T20:42:45;50.10;;;29.20;;
54557;SDS011;40452;50.080;20.040;2022-11-20T20:45:10;47.83;;;28.33;;
54557;SDS011;40452;50.080;20.040;2022-11-20T20:47:37;51.30;;;28.27;;
54557;SDS011;40452;50.080;20.040;2022-11-20T20:50:04;49.95;;;28.33;;
54557;SDS011;40452;50.080;20.040;2022-11-20T20:52:32;53.40;;;29.02;;
54557;SDS011;40452;50.080;20.040;2022-11-20T20:54:58;51.20;;;28.50;;
54557;SDS011;40452;50.080;20.040;2022-11-20T20:57:24;49.72;;;27.88;;
54557;SDS011;40452;50.080;20.040;2022-11-20T20:59:50;48.50;;;28.15;;
54557;SDS011;40452;50.080;20.040;2022-11-20T21:02:22;48.60;;;28.27;;
54557;SDS011;40452;50.080;20.040;2022-11-20T21:04:48;48.45;;;28.33;;
54557;SDS011;40452;50.080;20.040;2022-11-20T21:07:14;53.75;;;29.02;;
54557;SDS011;40452;50.080;20.040;2022-11-20T21:09:39;50.45;;;27.63;;
54557;SDS011;40452;50.080;20.040;2022-11-20T21:12:05;49.88;;;28.67;;
54557;SDS011;40452;50.080;20.040;2022-11-20T21:14:31;52.13;;;28.67;;
54557;SDS011;40452;50.080;20.040;2022-11-20T21:16:56;49.78;;;27.52;;
54557;SDS011;40452;50.080;20.040;2022-11-20T21:19:22;50.35;;;28.48;;
54557;SDS011;40452;50.080;20.040;2022-11-20T21:21:47;47.60;;;27.05;;
